Terminal Aerodrome Forecast
Issued by NWS

Home | Current Version | Previous Version | Text Only | Print | Product List | Glossary On
Versions: 1 2 3 4 5 6 7 8 9 10 11 12 13 14 15 16 17 18 19 20 21 22 23 24 25 26
000
FTUS41 KALY 281100
TAFPSF
TAF
KPSF 281120Z 2812/2912 32010G20KT P6SM SCT025 BKN100
      TEMPO 2812/2814 4SM -SHSN BKN025
     FM282000 31010KT P6SM SCT150
     FM290000 31006KT P6SM FEW250
     FM290500 00000KT P6SM SCT250=

USA.gov is the U.S. government's official web portal to all federal, state and local government web resources and services.